createdAt,value
2022-11-15T00:02:44.961Z,11.70
2022-11-15T00:05:32.082Z,9.50
2022-11-15T00:08:19.199Z,15.27
2022-11-15T00:11:06.320Z,7.82
2022-11-15T00:13:57.408Z,4.78
2022-11-15T00:16:44.832Z,5.95
2022-11-15T00:19:31.539Z,6.05
2022-11-15T00:22:18.664Z,11.60
2022-11-15T00:25:07.113Z,5.32
2022-11-15T00:27:58.000Z,4.00
2022-11-15T00:30:46.602Z,7.90
2022-11-15T00:33:34.464Z,4.33
2022-11-15T00:36:21.935Z,7.70
2022-11-15T00:39:08.953Z,8.95
2022-11-15T00:41:55.963Z,6.30
2022-11-15T00:44:43.279Z,5.65
2022-11-15T00:47:34.201Z,4.68
2022-11-15T00:50:21.641Z,5.63
2022-11-15T00:53:08.683Z,6.88
2022-11-15T00:55:56.064Z,5.93
2022-11-15T00:58:43.495Z,6.03
2022-11-15T01:01:31.017Z,6.28
2022-11-15T01:04:19.449Z,8.93
2022-11-15T01:07:06.902Z,5.20
2022-11-15T01:09:53.910Z,9.05
2022-11-15T01:12:40.904Z,4.97
2022-11-15T01:15:28.048Z,6.70
2022-11-15T01:18:15.572Z,9.63
2022-11-15T01:21:07.602Z,7.38
2022-11-15T01:23:56.121Z,5.90
2022-11-15T01:26:43.020Z,7.32
2022-11-15T01:29:30.023Z,16.80
2022-11-15T01:32:17.126Z,6.25
2022-11-15T01:35:04.518Z,7.05
2022-11-15T01:37:52.839Z,6.78
2022-11-15T01:40:40.191Z,5.45
2022-11-15T01:43:30.446Z,11.02
2022-11-15T01:46:26.490Z,12.93
2022-11-15T01:49:17.348Z,5.30
2022-11-15T01:52:09.337Z,5.68
2022-11-15T01:55:04.213Z,8.32
2022-11-15T01:57:55.554Z,4.60
2022-11-15T02:00:42.964Z,6.10
2022-11-15T02:03:37.573Z,6.50
2022-11-15T02:06:24.913Z,7.75
2022-11-15T02:09:12.337Z,10.90
2022-11-15T02:12:02.078Z,6.43
2022-11-15T02:14:52.048Z,9.85
2022-11-15T02:18:04.783Z,6.68
2022-11-15T02:21:00.681Z,9.02
2022-11-15T02:24:24.177Z,8.40
2022-11-15T02:27:41.445Z,3.13
2022-11-15T02:30:37.935Z,6.57
2022-11-15T02:33:34.270Z,11.00
2022-11-15T02:36:29.708Z,4.50
2022-11-15T02:39:25.520Z,6.30
2022-11-15T02:42:31.055Z,6.40
2022-11-15T02:45:24.333Z,6.03
2022-11-15T02:48:14.311Z,7.22
2022-11-15T02:51:02.699Z,7.65
2022-11-15T02:53:49.896Z,13.18
2022-11-15T02:56:37.471Z,5.68
2022-11-15T02:59:44.550Z,31.52
2022-11-15T03:02:41.635Z,9.32
2022-11-15T03:05:37.520Z,8.52
2022-11-15T03:08:33.496Z,4.40
2022-11-15T03:11:23.133Z,5.22
2022-11-15T03:14:22.214Z,8.48
2022-11-15T03:17:18.167Z,5.68
2022-11-15T03:20:08.789Z,4.82
2022-11-15T03:23:02.350Z,6.03
2022-11-15T03:25:53.405Z,8.73
2022-11-15T03:28:47.156Z,7.80
2022-11-15T03:31:51.614Z,6.28
2022-11-15T03:34:43.132Z,6.50
2022-11-15T03:37:37.198Z,8.48
2022-11-15T03:40:29.690Z,8.00
2022-11-15T03:43:25.071Z,6.93
2022-11-15T03:46:16.923Z,8.25
2022-11-15T03:49:09.690Z,6.75
2022-11-15T03:51:59.260Z,5.85
2022-11-15T03:54:55.155Z,9.77
2022-11-15T03:57:43.847Z,3.75
2022-11-15T04:00:31.439Z,16.58
2022-11-15T04:03:18.488Z,12.77
2022-11-15T04:06:05.815Z,7.65
2022-11-15T04:08:52.827Z,9.20
2022-11-15T04:11:39.908Z,6.95
2022-11-15T04:14:29.690Z,4.90
2022-11-15T04:17:16.738Z,6.90
2022-11-15T04:20:20.844Z,10.40
2022-11-15T04:23:28.275Z,21.23
2022-11-15T04:26:18.733Z,7.75
2022-11-15T04:29:22.938Z,5.53
2022-11-15T04:32:11.566Z,9.80
2022-11-15T04:34:58.362Z,5.97
2022-11-15T04:37:49.075Z,10.25
2022-11-15T04:40:37.043Z,6.20
2022-11-15T04:43:24.135Z,6.22
2022-11-15T04:46:10.980Z,5.28
2022-11-15T04:48:59.653Z,17.90
2022-11-15T04:51:46.647Z,7.55
2022-11-15T04:54:33.675Z,7.28
2022-11-15T04:57:20.365Z,6.63
2022-11-15T05:00:09.763Z,7.55
2022-11-15T05:03:14.390Z,10.02
2022-11-15T05:06:02.571Z,6.82
2022-11-15T05:08:49.802Z,11.25
2022-11-15T05:11:36.904Z,5.72
2022-11-15T05:14:23.726Z,8.20
2022-11-15T05:17:10.737Z,9.82
2022-11-15T05:19:58.105Z,8.40
2022-11-15T05:22:46.770Z,9.60
2022-11-15T05:25:34.186Z,5.95
2022-11-15T05:28:21.298Z,6.13
2022-11-15T05:31:09.729Z,13.85
2022-11-15T05:33:58.410Z,12.88
2022-11-15T05:36:46.887Z,7.75
2022-11-15T05:39:35.032Z,22.35
2022-11-15T05:42:21.976Z,9.68
2022-11-15T05:45:11.503Z,8.18
2022-11-15T05:48:01.054Z,15.82
2022-11-15T05:50:49.989Z,8.65
2022-11-15T05:53:38.591Z,9.50
2022-11-15T05:56:27.227Z,5.95
2022-11-15T05:59:14.817Z,7.85
2022-11-15T06:02:02.434Z,5.13
2022-11-15T06:04:49.624Z,9.90
2022-11-15T06:07:37.051Z,6.40
2022-11-15T06:10:24.065Z,5.57
2022-11-15T06:13:12.547Z,5.07
2022-11-15T06:15:59.977Z,7.13
2022-11-15T06:18:47.181Z,7.55
2022-11-15T06:21:34.116Z,8.23
2022-11-15T06:24:21.335Z,15.18
2022-11-15T06:27:08.451Z,8.05
2022-11-15T06:29:57.446Z,9.68
2022-11-15T06:32:44.637Z,5.72
2022-11-15T06:35:34.823Z,5.80
2022-11-15T06:38:21.702Z,7.63
2022-11-15T06:41:10.373Z,5.43
2022-11-15T06:43:58.541Z,7.70
2022-11-15T06:46:47.410Z,7.18
2022-11-15T06:49:34.577Z,6.57
2022-11-15T06:52:22.846Z,5.10
2022-11-15T06:55:10.983Z,6.40
2022-11-15T06:57:58.036Z,5.85
2022-11-15T07:00:45.484Z,11.85
2022-11-15T07:03:36.240Z,6.40
2022-11-15T07:06:23.010Z,4.90
2022-11-15T07:09:09.774Z,7.00
2022-11-15T07:11:56.655Z,8.45
2022-11-15T07:14:43.696Z,10.00
2022-11-15T07:17:32.415Z,7.10
2022-11-15T07:20:21.196Z,5.95
2022-11-15T07:23:08.606Z,9.02
2022-11-15T07:25:55.640Z,8.48
2022-11-15T07:28:42.941Z,5.90
2022-11-15T07:31:29.618Z,9.32
2022-11-15T07:34:16.536Z,8.57
2022-11-15T07:37:05.110Z,9.98
2022-11-15T07:39:51.824Z,4.97
2022-11-15T07:42:52.840Z,5.00
2022-11-15T07:45:43.819Z,16.48
2022-11-15T07:48:42.890Z,6.65
2022-11-15T07:51:31.452Z,13.20
2022-11-15T07:54:20.264Z,10.70
2022-11-15T07:57:08.285Z,13.93
2022-11-15T07:59:55.832Z,15.25
2022-11-15T08:02:43.182Z,6.35
2022-11-15T08:05:30.319Z,22.23
2022-11-15T08:08:17.303Z,10.13
2022-11-15T08:11:06.283Z,9.00
2022-11-15T08:13:53.343Z,7.07
2022-11-15T08:16:40.327Z,5.38
2022-11-15T08:19:27.632Z,6.90
2022-11-15T08:22:14.751Z,11.82
2022-11-15T08:25:01.651Z,3.60
2022-11-15T08:27:49.975Z,6.82
2022-11-15T08:30:39.528Z,8.20
2022-11-15T08:33:26.804Z,14.45
2022-11-15T08:36:16.505Z,9.43
2022-11-15T08:39:04.024Z,7.25
2022-11-15T08:41:51.027Z,7.65
2022-11-15T08:44:39.305Z,4.68
2022-11-15T08:47:26.469Z,7.05
2022-11-15T08:50:13.733Z,10.10
2022-11-15T08:53:06.899Z,3.83
2022-11-15T08:55:54.366Z,8.70
2022-11-15T08:58:43.616Z,8.60
2022-11-15T09:01:32.081Z,10.70
2022-11-15T09:04:19.651Z,10.70
2022-11-15T09:07:07.241Z,4.18
2022-11-15T09:09:54.391Z,9.32
2022-11-15T09:12:41.438Z,6.30
2022-11-15T09:15:28.352Z,5.10
2022-11-15T09:18:16.983Z,5.30
2022-11-15T09:21:05.479Z,6.47
2022-11-15T09:23:53.295Z,4.13
2022-11-15T09:26:40.782Z,4.43
2022-11-15T09:29:28.119Z,9.35
2022-11-15T09:32:15.206Z,6.07
2022-11-15T09:35:04.240Z,12.75
2022-11-15T09:37:56.178Z,7.00
2022-11-15T09:40:43.630Z,7.78
2022-11-15T09:43:37.308Z,5.85
2022-11-15T09:46:32.650Z,4.13
2022-11-15T09:49:20.592Z,8.48
2022-11-15T09:52:13.282Z,7.45
2022-11-15T09:54:53.398Z,6.40
2022-11-15T09:57:32.202Z,8.43
2022-11-15T10:00:43.927Z,8.43
2022-11-15T10:03:12.427Z,4.40
2022-11-15T10:05:43.419Z,6.43
2022-11-15T10:08:48.445Z,7.97
2022-11-15T10:11:36.727Z,4.53
2022-11-15T10:14:12.600Z,4.65
2022-11-15T10:17:12.653Z,20.85
2022-11-15T10:19:49.954Z,6.45
2022-11-15T10:22:27.914Z,5.10
2022-11-15T10:25:13.508Z,5.75
2022-11-15T10:27:45.404Z,8.10
2022-11-15T10:30:17.961Z,6.47
2022-11-15T10:32:48.477Z,9.45
2022-11-15T10:35:22.717Z,6.07
2022-11-15T10:37:52.776Z,10.30
2022-11-15T10:40:23.806Z,10.63
2022-11-15T10:43:08.482Z,6.47
2022-11-15T10:45:37.737Z,4.95
2022-11-15T10:48:24.671Z,12.77
2022-11-15T10:50:55.722Z,5.28
2022-11-15T10:53:29.194Z,7.30
2022-11-15T10:56:03.025Z,4.85
2022-11-15T10:58:39.714Z,4.15
2022-11-15T11:01:16.256Z,7.13
2022-11-15T11:03:46.253Z,6.93
2022-11-15T11:06:17.816Z,4.72
2022-11-15T11:09:07.956Z,5.75
2022-11-15T11:11:47.550Z,6.68
2022-11-15T11:14:24.257Z,4.28
2022-11-15T11:16:57.605Z,2.83
2022-11-15T11:19:42.838Z,5.10
2022-11-15T11:22:19.869Z,4.07
2022-11-15T11:24:59.097Z,5.10
2022-11-15T11:27:42.282Z,5.35
2022-11-15T11:30:18.774Z,8.30
2022-11-15T11:33:05.617Z,7.82
2022-11-15T11:35:41.741Z,10.23
2022-11-15T11:38:26.254Z,4.15
2022-11-15T11:41:06.391Z,11.55
2022-11-15T11:43:43.860Z,9.40
2022-11-15T11:46:40.590Z,4.88
2022-11-15T11:49:12.743Z,4.43
2022-11-15T11:51:45.963Z,5.00
2022-11-15T11:54:19.975Z,6.53
2022-11-15T11:56:51.602Z,8.50
2022-11-15T11:59:36.007Z,3.40
2022-11-15T12:02:20.011Z,3.38
2022-11-15T12:04:53.288Z,3.17
2022-11-15T12:07:26.433Z,5.15
2022-11-15T12:10:00.940Z,4.63
2022-11-15T12:12:36.899Z,9.05
2022-11-15T12:15:14.463Z,5.80
2022-11-15T12:17:45.290Z,7.40
2022-11-15T12:20:19.752Z,3.92
2022-11-15T12:22:56.405Z,5.05
2022-11-15T12:25:30.998Z,4.10
2022-11-15T12:28:03.978Z,4.60
2022-11-15T12:30:46.238Z,7.03
2022-11-15T12:33:37.799Z,5.30
2022-11-15T12:36:08.336Z,7.18
2022-11-15T12:38:57.562Z,5.38
2022-11-15T12:41:27.941Z,3.72
2022-11-15T12:43:57.575Z,6.38
2022-11-15T12:47:04.490Z,4.97
2022-11-15T12:49:48.218Z,5.55
2022-11-15T12:52:20.030Z,9.52
2022-11-15T12:55:25.492Z,8.45
2022-11-15T12:57:55.475Z,3.53
2022-11-15T13:00:45.296Z,9.48
2022-11-15T13:03:30.700Z,6.45
2022-11-15T13:06:35.474Z,6.40
2022-11-15T13:09:05.153Z,4.35
2022-11-15T13:11:52.704Z,5.22
2022-11-15T13:14:49.049Z,7.22
2022-11-15T13:17:36.040Z,4.38
2022-11-15T13:20:21.320Z,10.13
2022-11-15T13:22:55.808Z,7.40
2022-11-15T13:25:43.239Z,5.30
2022-11-15T13:28:22.843Z,5.63
2022-11-15T13:30:56.667Z,4.93
2022-11-15T13:33:35.519Z,3.08
2022-11-15T13:36:08.500Z,7.57
2022-11-15T13:38:38.715Z,6.63
2022-11-15T13:41:21.208Z,9.68
2022-11-15T13:43:50.891Z,10.70
2022-11-15T13:46:22.115Z,5.60
2022-11-15T13:48:58.624Z,8.82
2022-11-15T13:51:34.709Z,9.20
2022-11-15T13:54:10.831Z,4.68
2022-11-15T13:56:39.720Z,5.05
2022-11-15T13:59:12.890Z,5.63
2022-11-15T14:01:45.703Z,4.85
2022-11-15T14:04:20.154Z,5.53
2022-11-15T14:06:51.263Z,4.10
2022-11-15T14:09:33.930Z,8.88
2022-11-15T14:12:04.400Z,5.05
2022-11-15T14:14:33.362Z,7.50
2022-11-15T14:17:03.502Z,8.43
2022-11-15T14:19:42.244Z,8.95
2022-11-15T14:22:16.429Z,6.07
2022-11-15T14:24:49.040Z,7.97
2022-11-15T14:27:27.546Z,7.78
2022-11-15T14:29:56.767Z,6.88
2022-11-15T14:32:30.189Z,5.35
2022-11-15T14:35:01.060Z,8.13
2022-11-15T14:37:35.833Z,3.88
2022-11-15T14:40:06.039Z,7.82
2022-11-15T14:42:35.123Z,6.10
2022-11-15T14:45:04.114Z,29.85
2022-11-15T14:47:34.083Z,11.60
2022-11-15T14:50:02.782Z,14.55
2022-11-15T14:52:35.355Z,12.18
2022-11-15T14:55:06.181Z,15.88
2022-11-15T14:57:35.682Z,12.50
2022-11-15T15:00:05.340Z,19.85
2022-11-15T15:02:46.736Z,21.50
2022-11-15T15:05:20.496Z,17.55
2022-11-15T15:07:49.982Z,13.88
2022-11-15T15:13:08.629Z,8.40
2022-11-15T15:15:38.881Z,9.95
2022-11-15T15:18:09.678Z,10.25
2022-11-15T15:20:40.565Z,7.20
2022-11-15T15:23:16.680Z,9.57
2022-11-15T15:25:46.933Z,10.45
2022-11-15T15:28:15.454Z,12.70
2022-11-15T15:30:44.750Z,12.63
2022-11-15T15:33:14.691Z,6.65
2022-11-15T15:35:43.321Z,12.13
2022-11-15T15:38:14.112Z,20.23
2022-11-15T15:40:42.793Z,8.73
2022-11-15T15:43:12.025Z,6.43
2022-11-15T15:45:42.046Z,13.50
2022-11-15T15:48:15.479Z,9.07
2022-11-15T15:50:45.043Z,7.68
2022-11-15T15:53:15.063Z,6.60
2022-11-15T15:55:45.147Z,6.95
2022-11-15T15:58:13.753Z,8.68
2022-11-15T16:00:42.402Z,14.52
2022-11-15T16:03:10.963Z,19.88
2022-11-15T16:05:41.275Z,14.18
2022-11-15T16:08:19.733Z,10.90
2022-11-15T16:10:48.774Z,12.68
2022-11-15T16:13:17.445Z,14.75
2022-11-15T16:15:46.915Z,10.70
2022-11-15T16:18:18.713Z,10.73
2022-11-15T16:20:51.105Z,16.55
2022-11-15T16:23:21.191Z,7.65
2022-11-15T16:25:52.617Z,9.15
2022-11-15T16:28:23.417Z,10.45
2022-11-15T16:31:02.705Z,9.48
2022-11-15T16:33:31.634Z,16.88
2022-11-15T16:36:01.884Z,9.88
2022-11-15T16:38:30.673Z,18.65
2022-11-15T16:40:59.620Z,23.40
2022-11-15T16:43:28.163Z,16.38
2022-11-15T16:45:56.767Z,23.60
2022-11-15T16:48:27.143Z,28.83
2022-11-15T16:50:58.143Z,18.08
2022-11-15T16:53:29.877Z,28.85
2022-11-15T16:55:58.957Z,10.65
2022-11-15T16:58:27.625Z,13.63
2022-11-15T17:00:58.053Z,20.75
2022-11-15T17:03:26.830Z,11.70
2022-11-15T17:06:00.528Z,15.80
2022-11-15T17:08:31.057Z,13.95
2022-11-15T17:10:59.900Z,20.80
2022-11-15T17:13:29.133Z,20.10
2022-11-15T17:16:05.972Z,13.88
2022-11-15T17:18:34.835Z,15.55
2022-11-15T17:21:08.148Z,12.60
2022-11-15T17:23:38.050Z,21.08
2022-11-15T17:26:24.084Z,17.40
2022-11-15T17:28:57.520Z,19.33
2022-11-15T17:31:26.464Z,19.63
2022-11-15T17:33:55.045Z,31.65
2022-11-15T17:36:23.738Z,9.68
2022-11-15T17:38:59.105Z,19.45
2022-11-15T17:41:28.308Z,23.45
2022-11-15T17:43:59.156Z,12.30
2022-11-15T17:46:28.496Z,21.45
2022-11-15T17:48:58.113Z,20.10
2022-11-15T17:51:26.983Z,14.23
2022-11-15T17:53:57.588Z,14.85
2022-11-15T17:56:27.612Z,15.02
2022-11-15T17:58:57.098Z,41.10
2022-11-15T18:01:27.556Z,18.10
2022-11-15T18:03:56.926Z,10.93
2022-11-15T18:06:26.399Z,27.77
2022-11-15T18:08:57.656Z,16.23
2022-11-15T18:11:27.911Z,16.70
2022-11-15T18:13:59.707Z,34.28
2022-11-15T18:16:31.444Z,17.88
2022-11-15T18:19:00.356Z,17.30
2022-11-15T18:21:34.057Z,16.63
2022-11-15T18:24:04.128Z,17.88
2022-11-15T18:26:32.725Z,11.25
2022-11-15T18:29:05.964Z,14.88
2022-11-15T18:31:34.769Z,13.80
2022-11-15T18:34:03.316Z,23.88
2022-11-15T18:36:32.975Z,12.85
2022-11-15T18:39:04.666Z,15.93
2022-11-15T18:41:34.905Z,22.65
2022-11-15T18:44:04.143Z,21.80
2022-11-15T18:46:33.641Z,20.02
2022-11-15T18:49:03.454Z,12.73
2022-11-15T18:51:33.118Z,31.15
2022-11-15T18:54:04.007Z,35.72
2022-11-15T18:56:34.006Z,22.00
2022-11-15T18:59:04.244Z,20.73
2022-11-15T19:01:35.028Z,30.00
2022-11-15T19:04:07.864Z,27.55
2022-11-15T19:06:40.073Z,29.98
2022-11-15T19:09:12.463Z,25.25
2022-11-15T19:11:41.447Z,30.40
2022-11-15T19:14:11.954Z,18.20
2022-11-15T19:16:44.699Z,17.70
2022-11-15T19:19:15.917Z,26.65
2022-11-15T19:21:44.712Z,14.65
2022-11-15T19:24:14.727Z,17.48
2022-11-15T19:26:43.290Z,30.48
2022-11-15T19:29:12.032Z,22.73
2022-11-15T19:31:41.214Z,23.85
2022-11-15T19:34:10.192Z,49.47
2022-11-15T19:36:40.184Z,33.72
2022-11-15T19:39:12.849Z,31.48
2022-11-15T19:41:44.116Z,48.63
2022-11-15T19:44:13.720Z,24.67
2022-11-15T19:46:42.411Z,24.15
2022-11-15T19:49:11.731Z,55.90
2022-11-15T19:51:42.640Z,13.65
2022-11-15T19:54:11.446Z,21.83
2022-11-15T19:56:40.864Z,25.13
2022-11-15T19:59:12.005Z,29.27
2022-11-15T20:01:40.658Z,21.15
2022-11-15T20:04:10.255Z,24.10
2022-11-15T20:06:41.992Z,32.20
2022-11-15T20:09:16.264Z,18.58
2022-11-15T20:11:45.368Z,14.90
2022-11-15T20:14:15.328Z,15.32
2022-11-15T20:16:44.050Z,22.80
2022-11-15T20:19:16.002Z,19.05
2022-11-15T20:21:44.626Z,22.77
2022-11-15T20:24:13.092Z,23.13
2022-11-15T20:26:41.617Z,21.83
2022-11-15T20:29:10.182Z,25.60
2022-11-15T20:31:40.159Z,17.10
2022-11-15T20:34:08.930Z,14.52
2022-11-15T20:36:37.478Z,22.90
2022-11-15T20:39:06.154Z,26.50
2022-11-15T20:41:34.644Z,22.55
2022-11-15T20:44:04.062Z,12.10
2022-11-15T20:46:32.566Z,20.80
2022-11-15T20:49:02.528Z,25.85
2022-11-15T20:51:31.557Z,31.15
2022-11-15T20:54:00.096Z,16.40
2022-11-15T20:56:28.628Z,18.88
2022-11-15T20:58:57.600Z,30.55
2022-11-15T21:01:26.244Z,33.47
2022-11-15T21:03:55.509Z,14.23
2022-11-15T21:06:27.018Z,30.90
2022-11-15T21:09:14.129Z,18.08
2022-11-15T21:11:59.896Z,10.68
2022-11-15T21:14:28.391Z,18.30
2022-11-15T21:16:56.853Z,39.83
2022-11-15T21:19:29.106Z,20.05
2022-11-15T21:22:03.854Z,40.28
2022-11-15T21:24:33.940Z,18.50
2022-11-15T21:27:02.849Z,27.73
2022-11-15T21:29:40.165Z,12.55
2022-11-15T21:32:09.829Z,22.75
2022-11-15T21:34:38.759Z,23.70
2022-11-15T21:37:10.671Z,17.33
2022-11-15T21:39:39.656Z,11.73
2022-11-15T21:42:08.224Z,22.92
2022-11-15T21:44:36.750Z,12.88
2022-11-15T21:47:05.200Z,14.77
2022-11-15T21:49:33.703Z,13.35
2022-11-15T21:52:02.189Z,15.35
2022-11-15T21:54:32.091Z,13.75
2022-11-15T21:57:00.630Z,23.23
2022-11-15T21:59:29.148Z,12.43
2022-11-15T22:02:14.822Z,8.52
2022-11-15T22:04:43.333Z,15.68
2022-11-15T22:07:12.029Z,15.57
2022-11-15T22:09:42.181Z,23.77
2022-11-15T22:12:10.798Z,15.82
2022-11-15T22:14:39.414Z,18.88
2022-11-15T22:17:08.128Z,19.67
2022-11-15T22:19:47.528Z,11.85
2022-11-15T22:22:20.987Z,18.50
2022-11-15T22:24:50.828Z,20.70
2022-11-15T22:27:19.353Z,26.73
2022-11-15T22:29:47.915Z,16.33
2022-11-15T22:32:16.522Z,19.63
2022-11-15T22:34:45.077Z,11.07
2022-11-15T22:37:20.380Z,13.55
2022-11-15T22:39:50.881Z,13.75
2022-11-15T22:42:23.449Z,24.05
2022-11-15T22:44:52.559Z,20.92
2022-11-15T22:47:21.176Z,20.83
2022-11-15T22:49:49.720Z,20.13
2022-11-15T22:52:18.262Z,24.92
2022-11-15T22:54:46.865Z,11.77
2022-11-15T22:57:16.766Z,25.13
2022-11-15T22:59:45.282Z,19.75
2022-11-15T23:02:13.861Z,14.82
2022-11-15T23:04:42.376Z,23.15
2022-11-15T23:07:10.952Z,27.55
2022-11-15T23:09:39.564Z,24.13
2022-11-15T23:12:27.600Z,9.98
2022-11-15T23:14:57.628Z,10.57
2022-11-15T23:17:25.216Z,12.07
2022-11-15T23:19:53.796Z,21.05
2022-11-15T23:22:39.631Z,12.05
2022-11-15T23:25:08.834Z,6.60
2022-11-15T23:27:38.015Z,11.65
2022-11-15T23:30:27.474Z,9.27
2022-11-15T23:33:14.799Z,16.63
2022-11-15T23:35:43.283Z,11.75
2022-11-15T23:38:12.033Z,12.00
2022-11-15T23:40:40.578Z,8.75
2022-11-15T23:43:09.094Z,7.07
2022-11-15T23:45:40.720Z,6.65
2022-11-15T23:48:09.228Z,7.45
2022-11-15T23:50:38.257Z,22.15
2022-11-15T23:53:07.163Z,13.95
2022-11-15T23:55:35.717Z,34.67
2022-11-15T23:58:04.275Z,17.40
